sensor_id;sensor_type;location;lat;lon;timestamp;P1;durP1;ratioP1;P2;durP2;ratioP2
26325;SDS011;14032;52.510;7.342;2023-12-20T00:00:02;13.60;;;3.22;;
26325;SDS011;14032;52.510;7.342;2023-12-20T00:02:28;8.57;;;2.67;;
26325;SDS011;14032;52.510;7.342;2023-12-20T00:04:53;17.40;;;3.85;;
26325;SDS011;14032;52.510;7.342;2023-12-20T00:07:19;20.88;;;3.63;;
26325;SDS011;14032;52.510;7.342;2023-12-20T00:09:44;15.80;;;4.15;;
26325;SDS011;14032;52.510;7.342;2023-12-20T00:12:10;12.07;;;3.10;;
26325;SDS011;14032;52.510;7.342;2023-12-20T00:14:36;14.25;;;3.85;;
26325;SDS011;14032;52.510;7.342;2023-12-20T00:17:01;9.95;;;3.38;;
26325;SDS011;14032;52.510;7.342;2023-12-20T00:19:27;12.25;;;3.28;;
26325;SDS011;14032;52.510;7.342;2023-12-20T00:21:52;14.35;;;3.20;;
26325;SDS011;14032;52.510;7.342;2023-12-20T00:24:18;19.80;;;3.60;;
26325;SDS011;14032;52.510;7.342;2023-12-20T00:26:43;14.23;;;3.35;;
26325;SDS011;14032;52.510;7.342;2023-12-20T00:29:09;13.27;;;3.65;;
26325;SDS011;14032;52.510;7.342;2023-12-20T00:31:34;18.33;;;3.78;;
26325;SDS011;14032;52.510;7.342;2023-12-20T00:34:00;15.85;;;3.78;;
26325;SDS011;14032;52.510;7.342;2023-12-20T00:36:26;17.83;;;3.80;;
26325;SDS011;14032;52.510;7.342;2023-12-20T00:38:52;15.85;;;3.10;;
26325;SDS011;14032;52.510;7.342;2023-12-20T00:41:17;13.07;;;3.45;;
26325;SDS011;14032;52.510;7.342;2023-12-20T00:43:43;20.73;;;3.78;;
26325;SDS011;14032;52.510;7.342;2023-12-20T00:46:09;13.25;;;3.90;;
26325;SDS011;14032;52.510;7.342;2023-12-20T00:48:35;14.82;;;4.03;;
26325;SDS011;14032;52.510;7.342;2023-12-20T00:51:00;17.73;;;3.60;;
26325;SDS011;14032;52.510;7.342;2023-12-20T00:53:26;15.90;;;3.85;;
26325;SDS011;14032;52.510;7.342;2023-12-20T00:55:51;15.27;;;3.17;;
26325;SDS011;14032;52.510;7.342;2023-12-20T00:58:17;19.80;;;3.60;;
26325;SDS011;14032;52.510;7.342;2023-12-20T01:00:42;17.05;;;4.05;;
26325;SDS011;14032;52.510;7.342;2023-12-20T01:03:08;17.63;;;3.35;;
26325;SDS011;14032;52.510;7.342;2023-12-20T01:05:34;16.83;;;3.60;;
26325;SDS011;14032;52.510;7.342;2023-12-20T01:08:00;19.75;;;3.47;;
26325;SDS011;14032;52.510;7.342;2023-12-20T01:10:27;24.48;;;4.95;;
26325;SDS011;14032;52.510;7.342;2023-12-20T01:12:54;10.05;;;3.38;;
26325;SDS011;14032;52.510;7.342;2023-12-20T01:15:20;10.73;;;2.75;;
26325;SDS011;14032;52.510;7.342;2023-12-20T01:17:45;14.68;;;3.30;;
26325;SDS011;14032;52.510;7.342;2023-12-20T01:20:11;26.25;;;3.92;;
26325;SDS011;14032;52.510;7.342;2023-12-20T01:22:36;25.98;;;4.53;;
26325;SDS011;14032;52.510;7.342;2023-12-20T01:25:02;13.40;;;3.05;;
26325;SDS011;14032;52.510;7.342;2023-12-20T01:27:28;15.48;;;3.85;;
26325;SDS011;14032;52.510;7.342;2023-12-20T01:29:54;13.57;;;3.50;;
26325;SDS011;14032;52.510;7.342;2023-12-20T01:32:21;16.52;;;3.58;;
26325;SDS011;14032;52.510;7.342;2023-12-20T01:34:47;16.95;;;3.75;;
26325;SDS011;14032;52.510;7.342;2023-12-20T01:37:13;21.90;;;4.03;;
26325;SDS011;14032;52.510;7.342;2023-12-20T01:39:39;17.48;;;3.28;;
26325;SDS011;14032;52.510;7.342;2023-12-20T01:42:04;16.67;;;3.15;;
26325;SDS011;14032;52.510;7.342;2023-12-20T01:44:30;23.08;;;3.38;;
26325;SDS011;14032;52.510;7.342;2023-12-20T01:46:56;19.10;;;3.10;;
26325;SDS011;14032;52.510;7.342;2023-12-20T01:49:22;19.73;;;3.58;;
26325;SDS011;14032;52.510;7.342;2023-12-20T01:51:48;14.93;;;3.50;;
26325;SDS011;14032;52.510;7.342;2023-12-20T01:54:15;20.55;;;3.88;;
26325;SDS011;14032;52.510;7.342;2023-12-20T01:56:41;12.60;;;3.40;;
26325;SDS011;14032;52.510;7.342;2023-12-20T01:59:07;22.70;;;3.55;;
26325;SDS011;14032;52.510;7.342;2023-12-20T02:01:37;25.65;;;3.00;;
26325;SDS011;14032;52.510;7.342;2023-12-20T02:04:02;21.92;;;3.10;;
26325;SDS011;14032;52.510;7.342;2023-12-20T02:06:29;20.40;;;3.50;;
26325;SDS011;14032;52.510;7.342;2023-12-20T02:08:57;19.65;;;3.10;;
26325;SDS011;14032;52.510;7.342;2023-12-20T02:11:23;17.05;;;3.15;;
26325;SDS011;14032;52.510;7.342;2023-12-20T02:13:50;22.17;;;3.10;;
26325;SDS011;14032;52.510;7.342;2023-12-20T02:16:15;24.27;;;3.17;;
26325;SDS011;14032;52.510;7.342;2023-12-20T02:18:42;19.25;;;3.33;;
26325;SDS011;14032;52.510;7.342;2023-12-20T02:21:09;19.55;;;2.92;;
26325;SDS011;14032;52.510;7.342;2023-12-20T02:23:34;15.80;;;2.97;;
26325;SDS011;14032;52.510;7.342;2023-12-20T02:26:00;18.73;;;3.33;;
26325;SDS011;14032;52.510;7.342;2023-12-20T02:28:26;18.02;;;2.83;;
26325;SDS011;14032;52.510;7.342;2023-12-20T02:30:52;19.92;;;3.20;;
26325;SDS011;14032;52.510;7.342;2023-12-20T02:33:18;17.45;;;3.13;;
26325;SDS011;14032;52.510;7.342;2023-12-20T02:35:43;15.73;;;2.88;;
26325;SDS011;14032;52.510;7.342;2023-12-20T02:38:09;21.23;;;3.17;;
26325;SDS011;14032;52.510;7.342;2023-12-20T02:40:34;18.15;;;2.97;;
26325;SDS011;14032;52.510;7.342;2023-12-20T02:43:00;22.23;;;3.10;;
26325;SDS011;14032;52.510;7.342;2023-12-20T02:45:26;14.75;;;2.70;;
26325;SDS011;14032;52.510;7.342;2023-12-20T02:47:52;20.40;;;3.10;;
26325;SDS011;14032;52.510;7.342;2023-12-20T02:50:17;25.98;;;3.80;;
26325;SDS011;14032;52.510;7.342;2023-12-20T02:52:46;23.17;;;3.38;;
26325;SDS011;14032;52.510;7.342;2023-12-20T02:55:12;18.63;;;3.38;;
26325;SDS011;14032;52.510;7.342;2023-12-20T02:57:37;19.00;;;3.17;;
26325;SDS011;14032;52.510;7.342;2023-12-20T03:00:07;22.92;;;3.53;;
26325;SDS011;14032;52.510;7.342;2023-12-20T03:02:36;33.28;;;4.53;;
26325;SDS011;14032;52.510;7.342;2023-12-20T03:05:01;20.75;;;3.55;;
26325;SDS011;14032;52.510;7.342;2023-12-20T03:07:27;27.33;;;3.58;;
26325;SDS011;14032;52.510;7.342;2023-12-20T03:09:53;19.30;;;4.28;;
26325;SDS011;14032;52.510;7.342;2023-12-20T03:12:18;22.58;;;4.10;;
26325;SDS011;14032;52.510;7.342;2023-12-20T03:14:44;34.75;;;6.68;;
26325;SDS011;14032;52.510;7.342;2023-12-20T03:17:09;22.00;;;3.75;;
26325;SDS011;14032;52.510;7.342;2023-12-20T03:19:35;23.73;;;4.18;;
26325;SDS011;14032;52.510;7.342;2023-12-20T03:22:01;17.33;;;4.20;;
26325;SDS011;14032;52.510;7.342;2023-12-20T03:24:27;20.98;;;4.30;;
26325;SDS011;14032;52.510;7.342;2023-12-20T03:26:53;24.67;;;4.72;;
26325;SDS011;14032;52.510;7.342;2023-12-20T03:29:18;23.45;;;4.10;;
26325;SDS011;14032;52.510;7.342;2023-12-20T03:31:44;31.42;;;5.03;;
26325;SDS011;14032;52.510;7.342;2023-12-20T03:34:10;21.77;;;4.40;;
26325;SDS011;14032;52.510;7.342;2023-12-20T03:36:36;21.83;;;4.50;;
26325;SDS011;14032;52.510;7.342;2023-12-20T03:39:01;22.58;;;4.38;;
26325;SDS011;14032;52.510;7.342;2023-12-20T03:41:27;28.20;;;4.40;;
26325;SDS011;14032;52.510;7.342;2023-12-20T03:43:53;20.48;;;4.60;;
26325;SDS011;14032;52.510;7.342;2023-12-20T03:46:18;28.30;;;4.97;;
26325;SDS011;14032;52.510;7.342;2023-12-20T03:48:44;28.20;;;4.65;;
26325;SDS011;14032;52.510;7.342;2023-12-20T03:51:10;25.27;;;4.30;;
26325;SDS011;14032;52.510;7.342;2023-12-20T03:53:35;25.00;;;5.53;;
26325;SDS011;14032;52.510;7.342;2023-12-20T03:56:01;29.92;;;4.60;;
26325;SDS011;14032;52.510;7.342;2023-12-20T03:58:26;30.52;;;5.88;;
26325;SDS011;14032;52.510;7.342;2023-12-20T04:00:52;21.48;;;4.38;;
26325;SDS011;14032;52.510;7.342;2023-12-20T04:03:18;28.48;;;4.65;;
26325;SDS011;14032;52.510;7.342;2023-12-20T04:05:43;25.40;;;4.65;;
26325;SDS011;14032;52.510;7.342;2023-12-20T04:08:09;30.15;;;4.25;;
26325;SDS011;14032;52.510;7.342;2023-12-20T04:10:36;22.13;;;3.45;;
26325;SDS011;14032;52.510;7.342;2023-12-20T04:13:02;24.92;;;3.72;;
26325;SDS011;14032;52.510;7.342;2023-12-20T04:15:28;26.10;;;4.18;;
26325;SDS011;14032;52.510;7.342;2023-12-20T04:17:54;29.92;;;4.07;;
26325;SDS011;14032;52.510;7.342;2023-12-20T04:20:19;28.05;;;4.30;;
26325;SDS011;14032;52.510;7.342;2023-12-20T04:22:45;28.35;;;4.53;;
26325;SDS011;14032;52.510;7.342;2023-12-20T04:25:11;31.50;;;4.80;;
26325;SDS011;14032;52.510;7.342;2023-12-20T04:27:36;30.67;;;5.30;;
26325;SDS011;14032;52.510;7.342;2023-12-20T04:30:02;26.08;;;3.67;;
26325;SDS011;14032;52.510;7.342;2023-12-20T04:32:28;25.10;;;4.68;;
26325;SDS011;14032;52.510;7.342;2023-12-20T04:34:54;29.38;;;4.47;;
26325;SDS011;14032;52.510;7.342;2023-12-20T04:37:19;31.95;;;4.97;;
26325;SDS011;14032;52.510;7.342;2023-12-20T04:39:45;29.33;;;4.60;;
26325;SDS011;14032;52.510;7.342;2023-12-20T04:42:11;24.75;;;3.83;;
26325;SDS011;14032;52.510;7.342;2023-12-20T04:44:36;22.25;;;4.03;;
26325;SDS011;14032;52.510;7.342;2023-12-20T04:47:02;35.05;;;5.60;;
26325;SDS011;14032;52.510;7.342;2023-12-20T04:49:28;19.00;;;3.90;;
26325;SDS011;14032;52.510;7.342;2023-12-20T04:51:54;23.25;;;4.55;;
26325;SDS011;14032;52.510;7.342;2023-12-20T04:54:20;30.17;;;4.50;;
26325;SDS011;14032;52.510;7.342;2023-12-20T04:56:46;24.65;;;4.22;;
26325;SDS011;14032;52.510;7.342;2023-12-20T04:59:12;30.85;;;4.20;;
26325;SDS011;14032;52.510;7.342;2023-12-20T05:01:38;20.27;;;3.90;;
26325;SDS011;14032;52.510;7.342;2023-12-20T05:04:04;34.28;;;4.35;;
26325;SDS011;14032;52.510;7.342;2023-12-20T05:06:29;24.33;;;3.92;;
26325;SDS011;14032;52.510;7.342;2023-12-20T05:08:55;28.92;;;4.20;;
26325;SDS011;14032;52.510;7.342;2023-12-20T05:11:20;24.15;;;4.35;;
26325;SDS011;14032;52.510;7.342;2023-12-20T05:13:46;28.42;;;4.32;;
26325;SDS011;14032;52.510;7.342;2023-12-20T05:16:11;33.60;;;4.63;;
26325;SDS011;14032;52.510;7.342;2023-12-20T05:18:39;26.35;;;4.53;;
26325;SDS011;14032;52.510;7.342;2023-12-20T05:21:04;31.73;;;4.47;;
26325;SDS011;14032;52.510;7.342;2023-12-20T05:23:30;24.25;;;4.15;;
26325;SDS011;14032;52.510;7.342;2023-12-20T05:25:55;31.20;;;4.30;;
26325;SDS011;14032;52.510;7.342;2023-12-20T05:28:21;31.75;;;5.82;;
26325;SDS011;14032;52.510;7.342;2023-12-20T05:30:47;23.35;;;3.63;;
26325;SDS011;14032;52.510;7.342;2023-12-20T05:33:12;32.97;;;4.18;;
26325;SDS011;14032;52.510;7.342;2023-12-20T05:35:38;26.73;;;4.65;;
26325;SDS011;14032;52.510;7.342;2023-12-20T05:38:03;23.95;;;4.05;;
26325;SDS011;14032;52.510;7.342;2023-12-20T05:40:29;28.23;;;4.35;;
26325;SDS011;14032;52.510;7.342;2023-12-20T05:42:54;26.00;;;4.32;;
26325;SDS011;14032;52.510;7.342;2023-12-20T05:45:23;34.95;;;5.13;;
26325;SDS011;14032;52.510;7.342;2023-12-20T05:47:49;32.97;;;5.00;;
26325;SDS011;14032;52.510;7.342;2023-12-20T05:50:14;32.58;;;4.75;;
26325;SDS011;14032;52.510;7.342;2023-12-20T05:52:40;38.60;;;5.13;;
26325;SDS011;14032;52.510;7.342;2023-12-20T05:55:06;24.65;;;3.75;;
26325;SDS011;14032;52.510;7.342;2023-12-20T05:57:31;20.63;;;4.85;;
26325;SDS011;14032;52.510;7.342;2023-12-20T05:59:57;27.90;;;3.75;;
26325;SDS011;14032;52.510;7.342;2023-12-20T06:02:23;24.60;;;4.03;;
26325;SDS011;14032;52.510;7.342;2023-12-20T06:04:48;28.35;;;4.35;;
26325;SDS011;14032;52.510;7.342;2023-12-20T06:07:14;32.17;;;4.90;;
26325;SDS011;14032;52.510;7.342;2023-12-20T06:09:40;29.60;;;4.32;;
26325;SDS011;14032;52.510;7.342;2023-12-20T06:12:06;35.53;;;4.43;;
26325;SDS011;14032;52.510;7.342;2023-12-20T06:14:33;25.40;;;3.97;;
26325;SDS011;14032;52.510;7.342;2023-12-20T06:16:58;33.70;;;4.88;;
26325;SDS011;14032;52.510;7.342;2023-12-20T06:19:24;23.75;;;3.97;;
26325;SDS011;14032;52.510;7.342;2023-12-20T06:21:50;21.00;;;3.72;;
26325;SDS011;14032;52.510;7.342;2023-12-20T06:24:15;29.17;;;4.03;;
26325;SDS011;14032;52.510;7.342;2023-12-20T06:26:41;35.85;;;4.43;;
26325;SDS011;14032;52.510;7.342;2023-12-20T06:29:06;24.35;;;3.70;;
26325;SDS011;14032;52.510;7.342;2023-12-20T06:31:32;23.90;;;3.63;;
26325;SDS011;14032;52.510;7.342;2023-12-20T06:33:58;29.23;;;3.95;;
26325;SDS011;14032;52.510;7.342;2023-12-20T06:36:25;25.25;;;4.28;;
26325;SDS011;14032;52.510;7.342;2023-12-20T06:38:51;31.08;;;4.20;;
26325;SDS011;14032;52.510;7.342;2023-12-20T06:41:17;24.52;;;4.15;;
26325;SDS011;14032;52.510;7.342;2023-12-20T06:43:42;26.10;;;4.35;;
26325;SDS011;14032;52.510;7.342;2023-12-20T06:46:08;28.33;;;4.90;;
26325;SDS011;14032;52.510;7.342;2023-12-20T06:48:34;27.27;;;4.40;;
26325;SDS011;14032;52.510;7.342;2023-12-20T06:51:00;26.27;;;3.63;;
26325;SDS011;14032;52.510;7.342;2023-12-20T06:53:29;25.15;;;4.80;;
26325;SDS011;14032;52.510;7.342;2023-12-20T06:55:55;25.25;;;4.32;;
26325;SDS011;14032;52.510;7.342;2023-12-20T06:58:23;28.75;;;4.15;;
26325;SDS011;14032;52.510;7.342;2023-12-20T07:00:50;27.23;;;3.67;;
26325;SDS011;14032;52.510;7.342;2023-12-20T07:03:16;19.35;;;3.50;;
26325;SDS011;14032;52.510;7.342;2023-12-20T07:05:42;29.17;;;4.43;;
26325;SDS011;14032;52.510;7.342;2023-12-20T07:08:08;31.15;;;3.78;;
26325;SDS011;14032;52.510;7.342;2023-12-20T07:10:34;26.58;;;4.03;;
26325;SDS011;14032;52.510;7.342;2023-12-20T07:12:59;31.98;;;4.75;;
26325;SDS011;14032;52.510;7.342;2023-12-20T07:15:25;27.38;;;3.75;;
26325;SDS011;14032;52.510;7.342;2023-12-20T07:17:51;35.13;;;4.88;;
26325;SDS011;14032;52.510;7.342;2023-12-20T07:20:18;30.52;;;5.13;;
26325;SDS011;14032;52.510;7.342;2023-12-20T07:22:43;28.70;;;3.40;;
26325;SDS011;14032;52.510;7.342;2023-12-20T07:25:09;24.83;;;3.53;;
26325;SDS011;14032;52.510;7.342;2023-12-20T07:27:35;26.13;;;3.92;;
26325;SDS011;14032;52.510;7.342;2023-12-20T07:30:01;27.50;;;3.88;;
26325;SDS011;14032;52.510;7.342;2023-12-20T07:32:26;33.65;;;4.65;;
26325;SDS011;14032;52.510;7.342;2023-12-20T07:34:52;26.77;;;4.15;;
26325;SDS011;14032;52.510;7.342;2023-12-20T07:37:18;31.20;;;4.63;;
26325;SDS011;14032;52.510;7.342;2023-12-20T07:39:44;22.58;;;3.65;;
26325;SDS011;14032;52.510;7.342;2023-12-20T07:42:09;34.33;;;4.15;;
26325;SDS011;14032;52.510;7.342;2023-12-20T07:44:38;19.65;;;3.78;;
26325;SDS011;14032;52.510;7.342;2023-12-20T07:47:04;28.63;;;4.75;;
26325;SDS011;14032;52.510;7.342;2023-12-20T07:49:30;28.25;;;4.80;;
26325;SDS011;14032;52.510;7.342;2023-12-20T07:51:56;23.85;;;3.67;;
26325;SDS011;14032;52.510;7.342;2023-12-20T07:54:22;18.52;;;3.65;;
26325;SDS011;14032;52.510;7.342;2023-12-20T07:56:48;23.05;;;4.20;;
26325;SDS011;14032;52.510;7.342;2023-12-20T07:59:14;25.17;;;3.28;;
26325;SDS011;14032;52.510;7.342;2023-12-20T08:01:40;24.65;;;3.35;;
26325;SDS011;14032;52.510;7.342;2023-12-20T08:04:05;23.15;;;3.63;;
26325;SDS011;14032;52.510;7.342;2023-12-20T08:06:31;20.20;;;3.67;;
26325;SDS011;14032;52.510;7.342;2023-12-20T08:08:56;19.60;;;3.72;;
26325;SDS011;14032;52.510;7.342;2023-12-20T08:11:22;33.05;;;4.20;;
26325;SDS011;14032;52.510;7.342;2023-12-20T08:13:47;30.27;;;4.20;;
26325;SDS011;14032;52.510;7.342;2023-12-20T08:16:13;31.88;;;3.90;;
26325;SDS011;14032;52.510;7.342;2023-12-20T08:18:40;27.48;;;3.42;;
26325;SDS011;14032;52.510;7.342;2023-12-20T08:21:06;22.13;;;3.75;;
26325;SDS011;14032;52.510;7.342;2023-12-20T08:23:34;22.95;;;3.95;;
26325;SDS011;14032;52.510;7.342;2023-12-20T08:26:03;18.85;;;2.80;;
26325;SDS011;14032;52.510;7.342;2023-12-20T08:28:30;24.55;;;3.83;;
26325;SDS011;14032;52.510;7.342;2023-12-20T08:30:56;29.23;;;4.15;;
26325;SDS011;14032;52.510;7.342;2023-12-20T08:33:22;24.52;;;4.10;;
26325;SDS011;14032;52.510;7.342;2023-12-20T08:35:47;39.25;;;5.20;;
26325;SDS011;14032;52.510;7.342;2023-12-20T08:38:13;24.98;;;3.58;;
26325;SDS011;14032;52.510;7.342;2023-12-20T08:40:39;19.33;;;3.60;;
26325;SDS011;14032;52.510;7.342;2023-12-20T08:43:05;20.90;;;3.83;;
26325;SDS011;14032;52.510;7.342;2023-12-20T08:45:30;21.15;;;3.50;;
26325;SDS011;14032;52.510;7.342;2023-12-20T08:47:56;32.28;;;4.00;;
26325;SDS011;14032;52.510;7.342;2023-12-20T08:50:21;31.65;;;4.72;;
26325;SDS011;14032;52.510;7.342;2023-12-20T08:52:47;26.52;;;4.10;;
26325;SDS011;14032;52.510;7.342;2023-12-20T08:55:12;28.75;;;4.60;;
26325;SDS011;14032;52.510;7.342;2023-12-20T08:57:39;27.13;;;4.22;;
26325;SDS011;14032;52.510;7.342;2023-12-20T09:00:05;27.30;;;4.40;;
26325;SDS011;14032;52.510;7.342;2023-12-20T09:02:32;30.58;;;4.53;;
26325;SDS011;14032;52.510;7.342;2023-12-20T09:05:01;26.35;;;6.00;;
26325;SDS011;14032;52.510;7.342;2023-12-20T09:07:27;27.17;;;4.40;;
26325;SDS011;14032;52.510;7.342;2023-12-20T09:09:55;25.35;;;4.63;;
26325;SDS011;14032;52.510;7.342;2023-12-20T09:12:21;23.23;;;4.57;;
26325;SDS011;14032;52.510;7.342;2023-12-20T09:14:47;27.77;;;7.13;;
26325;SDS011;14032;52.510;7.342;2023-12-20T09:17:14;31.85;;;5.35;;
26325;SDS011;14032;52.510;7.342;2023-12-20T09:19:41;28.30;;;5.38;;
26325;SDS011;14032;52.510;7.342;2023-12-20T09:22:08;32.28;;;6.70;;
26325;SDS011;14032;52.510;7.342;2023-12-20T09:24:34;41.83;;;7.07;;
26325;SDS011;14032;52.510;7.342;2023-12-20T09:27:00;32.67;;;7.13;;
26325;SDS011;14032;52.510;7.342;2023-12-20T09:29:26;36.03;;;7.15;;
26325;SDS011;14032;52.510;7.342;2023-12-20T09:31:51;35.83;;;6.93;;
26325;SDS011;14032;52.510;7.342;2023-12-20T09:34:17;39.03;;;6.90;;
26325;SDS011;14032;52.510;7.342;2023-12-20T09:36:42;34.83;;;6.55;;
26325;SDS011;14032;52.510;7.342;2023-12-20T09:39:15;36.25;;;5.05;;
26325;SDS011;14032;52.510;7.342;2023-12-20T09:41:45;28.50;;;5.72;;
26325;SDS011;14032;52.510;7.342;2023-12-20T09:44:16;28.70;;;4.68;;
26325;SDS011;14032;52.510;7.342;2023-12-20T09:46:45;28.98;;;4.97;;
26325;SDS011;14032;52.510;7.342;2023-12-20T09:49:14;27.75;;;4.57;;
26325;SDS011;14032;52.510;7.342;2023-12-20T09:51:42;37.85;;;5.10;;
26325;SDS011;14032;52.510;7.342;2023-12-20T09:54:08;31.58;;;5.32;;
26325;SDS011;14032;52.510;7.342;2023-12-20T09:56:34;23.88;;;4.72;;
26325;SDS011;14032;52.510;7.342;2023-12-20T09:59:01;37.85;;;4.63;;
26325;SDS011;14032;52.510;7.342;2023-12-20T10:01:27;30.52;;;5.05;;
26325;SDS011;14032;52.510;7.342;2023-12-20T10:03:54;36.38;;;5.45;;
26325;SDS011;14032;52.510;7.342;2023-12-20T10:06:20;31.35;;;4.72;;
26325;SDS011;14032;52.510;7.342;2023-12-20T10:08:48;31.35;;;5.47;;
26325;SDS011;14032;52.510;7.342;2023-12-20T10:11:13;32.70;;;5.13;;
26325;SDS011;14032;52.510;7.342;2023-12-20T10:13:40;33.00;;;5.10;;
26325;SDS011;14032;52.510;7.342;2023-12-20T10:16:06;33.45;;;5.47;;
26325;SDS011;14032;52.510;7.342;2023-12-20T10:18:32;31.15;;;5.45;;
26325;SDS011;14032;52.510;7.342;2023-12-20T10:20:58;26.58;;;4.68;;
26325;SDS011;14032;52.510;7.342;2023-12-20T10:23:23;29.77;;;5.30;;
26325;SDS011;14032;52.510;7.342;2023-12-20T10:25:55;32.40;;;4.97;;
26325;SDS011;14032;52.510;7.342;2023-12-20T10:28:25;28.00;;;4.88;;
26325;SDS011;14032;52.510;7.342;2023-12-20T10:30:53;25.98;;;4.95;;
26325;SDS011;14032;52.510;7.342;2023-12-20T10:33:25;30.42;;;6.28;;
26325;SDS011;14032;52.510;7.342;2023-12-20T10:35:57;35.78;;;5.00;;
26325;SDS011;14032;52.510;7.342;2023-12-20T10:38:22;34.80;;;5.40;;
26325;SDS011;14032;52.510;7.342;2023-12-20T10:40:48;34.40;;;5.65;;
26325;SDS011;14032;52.510;7.342;2023-12-20T10:43:18;25.00;;;5.45;;
26325;SDS011;14032;52.510;7.342;2023-12-20T10:45:48;27.55;;;5.65;;
26325;SDS011;14032;52.510;7.342;2023-12-20T10:48:14;32.63;;;5.03;;
26325;SDS011;14032;52.510;7.342;2023-12-20T10:50:47;25.90;;;5.13;;
26325;SDS011;14032;52.510;7.342;2023-12-20T10:53:17;31.55;;;5.18;;
26325;SDS011;14032;52.510;7.342;2023-12-20T10:55:46;17.27;;;3.38;;
26325;SDS011;14032;52.510;7.342;2023-12-20T10:58:17;10.45;;;1.50;;
26325;SDS011;14032;52.510;7.342;2023-12-20T11:00:48;10.23;;;1.27;;
26325;SDS011;14032;52.510;7.342;2023-12-20T11:03:17;9.88;;;1.48;;
26325;SDS011;14032;52.510;7.342;2023-12-20T11:08:45;7.20;;;1.48;;
26325;SDS011;14032;52.510;7.342;2023-12-20T11:13:58;8.02;;;1.20;;
26325;SDS011;14032;52.510;7.342;2023-12-20T11:16:36;12.00;;;1.60;;
26325;SDS011;14032;52.510;7.342;2023-12-20T11:19:05;14.85;;;2.00;;
26325;SDS011;14032;52.510;7.342;2023-12-20T11:21:34;10.80;;;1.35;;
26325;SDS011;14032;52.510;7.342;2023-12-20T11:24:07;10.98;;;1.42;;
26325;SDS011;14032;52.510;7.342;2023-12-20T11:26:39;11.77;;;1.73;;
26325;SDS011;14032;52.510;7.342;2023-12-20T11:32:03;11.48;;;2.15;;
26325;SDS011;14032;52.510;7.342;2023-12-20T11:35:00;10.63;;;2.03;;
26325;SDS011;14032;52.510;7.342;2023-12-20T11:37:49;9.10;;;1.92;;
26325;SDS011;14032;52.510;7.342;2023-12-20T11:40:19;12.75;;;2.05;;
26325;SDS011;14032;52.510;7.342;2023-12-20T11:42:50;19.45;;;2.15;;
26325;SDS011;14032;52.510;7.342;2023-12-20T11:45:22;10.10;;;1.83;;
26325;SDS011;14032;52.510;7.342;2023-12-20T11:47:49;17.60;;;2.28;;
26325;SDS011;14032;52.510;7.342;2023-12-20T11:50:16;13.07;;;1.80;;
26325;SDS011;14032;52.510;7.342;2023-12-20T11:52:43;15.82;;;2.33;;
26325;SDS011;14032;52.510;7.342;2023-12-20T11:55:08;13.50;;;2.47;;
26325;SDS011;14032;52.510;7.342;2023-12-20T11:57:34;15.50;;;2.50;;
26325;SDS011;14032;52.510;7.342;2023-12-20T12:00:01;14.13;;;2.33;;
26325;SDS011;14032;52.510;7.342;2023-12-20T12:02:28;16.67;;;1.88;;
26325;SDS011;14032;52.510;7.342;2023-12-20T12:04:53;6.57;;;1.70;;
26325;SDS011;14032;52.510;7.342;2023-12-20T12:07:20;9.05;;;2.00;;
26325;SDS011;14032;52.510;7.342;2023-12-20T12:09:45;13.05;;;2.22;;
26325;SDS011;14032;52.510;7.342;2023-12-20T12:12:12;14.60;;;2.28;;
26325;SDS011;14032;52.510;7.342;2023-12-20T12:14:38;11.05;;;2.10;;
26325;SDS011;14032;52.510;7.342;2023-12-20T12:17:09;14.55;;;2.00;;
26325;SDS011;14032;52.510;7.342;2023-12-20T12:19:36;10.38;;;1.75;;
26325;SDS011;14032;52.510;7.342;2023-12-20T12:22:06;8.77;;;1.90;;
26325;SDS011;14032;52.510;7.342;2023-12-20T12:24:45;15.88;;;3.00;;
26325;SDS011;14032;52.510;7.342;2023-12-20T12:27:12;12.32;;;2.10;;
26325;SDS011;14032;52.510;7.342;2023-12-20T12:29:38;14.13;;;2.15;;
26325;SDS011;14032;52.510;7.342;2023-12-20T12:32:06;13.20;;;1.88;;
26325;SDS011;14032;52.510;7.342;2023-12-20T12:34:32;11.85;;;2.30;;
26325;SDS011;14032;52.510;7.342;2023-12-20T12:37:02;10.52;;;2.08;;
26325;SDS011;14032;52.510;7.342;2023-12-20T12:39:30;8.07;;;1.88;;
26325;SDS011;14032;52.510;7.342;2023-12-20T12:41:56;11.77;;;2.72;;
26325;SDS011;14032;52.510;7.342;2023-12-20T12:44:22;19.23;;;3.63;;
26325;SDS011;14032;52.510;7.342;2023-12-20T12:46:51;10.27;;;2.17;;
26325;SDS011;14032;52.510;7.342;2023-12-20T12:49:18;15.98;;;4.00;;
26325;SDS011;14032;52.510;7.342;2023-12-20T12:51:45;18.83;;;3.65;;
26325;SDS011;14032;52.510;7.342;2023-12-20T12:54:10;8.43;;;1.98;;
26325;SDS011;14032;52.510;7.342;2023-12-20T12:56:38;10.63;;;1.60;;
26325;SDS011;14032;52.510;7.342;2023-12-20T12:59:04;11.70;;;2.30;;
26325;SDS011;14032;52.510;7.342;2023-12-20T13:01:30;12.80;;;2.35;;
26325;SDS011;14032;52.510;7.342;2023-12-20T13:03:56;14.07;;;2.13;;
26325;SDS011;14032;52.510;7.342;2023-12-20T13:06:21;15.70;;;1.65;;
26325;SDS011;14032;52.510;7.342;2023-12-20T13:08:47;10.95;;;1.63;;
26325;SDS011;14032;52.510;7.342;2023-12-20T13:11:14;17.73;;;2.10;;
26325;SDS011;14032;52.510;7.342;2023-12-20T13:13:43;14.98;;;2.00;;
26325;SDS011;14032;52.510;7.342;2023-12-20T13:16:11;11.15;;;1.60;;
26325;SDS011;14032;52.510;7.342;2023-12-20T13:18:37;9.15;;;1.50;;
26325;SDS011;14032;52.510;7.342;2023-12-20T13:21:02;14.13;;;3.03;;
26325;SDS011;14032;52.510;7.342;2023-12-20T13:23:28;7.50;;;1.33;;
26325;SDS011;14032;52.510;7.342;2023-12-20T13:25:54;7.32;;;1.65;;
26325;SDS011;14032;52.510;7.342;2023-12-20T13:28:20;9.18;;;1.58;;
26325;SDS011;14032;52.510;7.342;2023-12-20T13:30:45;10.88;;;1.55;;
26325;SDS011;14032;52.510;7.342;2023-12-20T13:33:11;13.25;;;1.48;;
26325;SDS011;14032;52.510;7.342;2023-12-20T13:35:36;11.52;;;1.73;;
26325;SDS011;14032;52.510;7.342;2023-12-20T13:38:02;18.60;;;2.90;;
26325;SDS011;14032;52.510;7.342;2023-12-20T13:40:28;8.93;;;1.60;;
26325;SDS011;14032;52.510;7.342;2023-12-20T13:42:53;11.82;;;2.22;;
26325;SDS011;14032;52.510;7.342;2023-12-20T13:45:19;9.32;;;2.42;;
26325;SDS011;14032;52.510;7.342;2023-12-20T13:47:45;10.82;;;2.50;;
26325;SDS011;14032;52.510;7.342;2023-12-20T13:50:11;13.77;;;2.30;;
26325;SDS011;14032;52.510;7.342;2023-12-20T13:52:36;10.75;;;2.42;;
26325;SDS011;14032;52.510;7.342;2023-12-20T13:55:03;17.13;;;3.30;;
26325;SDS011;14032;52.510;7.342;2023-12-20T13:57:30;13.77;;;2.10;;
26325;SDS011;14032;52.510;7.342;2023-12-20T13:59:56;12.40;;;1.85;;
26325;SDS011;14032;52.510;7.342;2023-12-20T14:02:24;10.63;;;1.73;;
26325;SDS011;14032;52.510;7.342;2023-12-20T14:04:51;11.90;;;1.83;;
26325;SDS011;14032;52.510;7.342;2023-12-20T14:07:17;19.13;;;2.88;;
26325;SDS011;14032;52.510;7.342;2023-12-20T14:09:43;11.07;;;2.08;;
26325;SDS011;14032;52.510;7.342;2023-12-20T14:12:10;13.50;;;1.83;;
26325;SDS011;14032;52.510;7.342;2023-12-20T14:14:36;14.63;;;2.30;;
26325;SDS011;14032;52.510;7.342;2023-12-20T14:17:02;12.50;;;2.35;;
26325;SDS011;14032;52.510;7.342;2023-12-20T14:19:29;16.33;;;2.95;;
26325;SDS011;14032;52.510;7.342;2023-12-20T14:21:54;20.73;;;2.55;;
26325;SDS011;14032;52.510;7.342;2023-12-20T14:24:20;18.10;;;4.07;;
26325;SDS011;14032;52.510;7.342;2023-12-20T14:26:45;8.45;;;2.10;;
26325;SDS011;14032;52.510;7.342;2023-12-20T14:29:11;10.55;;;1.60;;
26325;SDS011;14032;52.510;7.342;2023-12-20T14:31:36;11.93;;;2.20;;
26325;SDS011;14032;52.510;7.342;2023-12-20T14:34:03;13.07;;;2.10;;
26325;SDS011;14032;52.510;7.342;2023-12-20T14:36:29;9.88;;;2.00;;
26325;SDS011;14032;52.510;7.342;2023-12-20T14:38:58;10.88;;;2.60;;